Wing River, Minnesota
Current Conditions -  °F | °C
As of 3:33 AM on Monday 20 Oct 2014 (Local Time) from KSAZ Reporting Station
Clear Clear  
Wind Chill: 39°   Ceiling: Unl
Heat Index: 43°   Visibility: 10mi
Dew Point: 39°   Wind: 7mph
Humidity: 87%   Direction: 280°W
Pressure: 29.92"   Gusts: NA
Location:  46.4671°N, 94.8901°W
Report Text: KSAZ 200833Z AUTO 28006KT 10SM CLR 06/04 A2992 RMK AO2
Loading
Personal Weather Stations






























Interactive Weather Map
Tropical Storm Tracking
New forecast layout! Learn more

10-Day Weather Forecast

Advertisements
Track Severe Weather on mobile